createdAt,value
2018-04-27T00:02:10.611Z,2.53
2018-04-27T00:04:38.791Z,2.03
2018-04-27T00:07:06.986Z,2.28
2018-04-27T00:09:35.963Z,2.75
2018-04-27T00:12:06.238Z,2.12
2018-04-27T00:14:34.462Z,2.53
2018-04-27T00:17:02.665Z,3.00
2018-04-27T00:19:32.373Z,2.78
2018-04-27T00:22:02.807Z,2.70
2018-04-27T00:24:31.069Z,2.28
2018-04-27T00:27:00.014Z,3.10
2018-04-27T00:29:29.584Z,3.20
2018-04-27T00:31:57.861Z,2.40
2018-04-27T00:34:26.101Z,2.62
2018-04-27T00:36:54.327Z,2.65
2018-04-27T00:39:22.525Z,3.00
2018-04-27T00:41:50.854Z,2.30
2018-04-27T00:44:19.032Z,2.87
2018-04-27T00:46:47.208Z,2.33
2018-04-27T00:49:15.398Z,2.80
2018-04-27T00:51:44.402Z,2.42
2018-04-27T00:54:12.989Z,3.20
2018-04-27T00:56:41.213Z,2.53
2018-04-27T00:59:09.403Z,2.40
2018-04-27T01:01:37.684Z,2.47
2018-04-27T01:04:06.654Z,2.47
2018-04-27T01:06:34.841Z,2.12
2018-04-27T01:09:03.040Z,2.75
2018-04-27T01:11:31.241Z,2.10
2018-04-27T01:14:00.796Z,2.30
2018-04-27T01:16:29.742Z,2.95
2018-04-27T01:18:57.925Z,2.47
2018-04-27T01:21:28.938Z,2.35
2018-04-27T01:23:57.129Z,2.40
2018-04-27T01:26:25.324Z,2.30
2018-04-27T01:28:53.525Z,2.72
2018-04-27T01:31:21.719Z,2.45
2018-04-27T01:33:49.953Z,2.30
2018-04-27T01:36:19.256Z,2.35
2018-04-27T01:38:47.858Z,2.80
2018-04-27T01:41:17.884Z,2.72
2018-04-27T01:43:46.462Z,2.90
2018-04-27T01:46:14.634Z,3.12
2018-04-27T01:48:42.831Z,2.40
2018-04-27T01:51:11.845Z,3.17
2018-04-27T01:53:40.064Z,2.25
2018-04-27T01:56:08.232Z,2.62
2018-04-27T01:58:36.434Z,2.62
2018-04-27T02:01:05.147Z,2.55
2018-04-27T02:03:33.352Z,2.37
2018-04-27T02:06:02.399Z,2.53
2018-04-27T02:08:30.606Z,3.72
2018-04-27T02:10:58.832Z,2.80
2018-04-27T02:13:26.987Z,3.00
2018-04-27T02:15:55.951Z,3.20
2018-04-27T02:18:24.181Z,2.70
2018-04-27T02:20:52.364Z,2.65
2018-04-27T02:23:20.547Z,2.90
2018-04-27T02:25:48.723Z,3.00
2018-04-27T02:28:16.887Z,2.80
2018-04-27T02:30:46.060Z,2.55
2018-04-27T02:33:14.237Z,2.37
2018-04-27T02:35:42.821Z,2.45
2018-04-27T02:38:11.049Z,2.67
2018-04-27T02:40:39.211Z,2.50
2018-04-27T02:43:08.414Z,2.80
2018-04-27T02:45:36.642Z,3.15
2018-04-27T02:48:05.621Z,2.87
2018-04-27T02:50:34.331Z,2.90
2018-04-27T02:53:02.541Z,3.03
2018-04-27T02:55:30.707Z,3.33
2018-04-27T02:57:58.867Z,2.58
2018-04-27T03:00:28.033Z,2.00
2018-04-27T03:02:56.197Z,2.40
2018-04-27T03:05:25.169Z,2.28
2018-04-27T03:07:53.326Z,2.78
2018-04-27T03:10:21.549Z,3.20
2018-04-27T03:12:50.958Z,2.80
2018-04-27T03:15:19.154Z,2.67
2018-04-27T03:17:47.303Z,2.53
2018-04-27T03:20:16.377Z,2.90
2018-04-27T03:22:45.295Z,2.28
2018-04-27T03:25:14.242Z,2.40
2018-04-27T03:27:42.416Z,2.47
2018-04-27T03:30:12.793Z,2.97
2018-04-27T03:32:40.996Z,2.40
2018-04-27T03:35:09.148Z,3.05
2018-04-27T03:37:38.063Z,3.08
2018-04-27T03:40:07.255Z,2.80
2018-04-27T03:42:35.441Z,3.28
2018-04-27T03:45:03.648Z,2.67
2018-04-27T03:47:32.580Z,3.08
2018-04-27T03:50:00.776Z,2.40
2018-04-27T03:52:28.926Z,2.03
2018-04-27T03:54:57.083Z,3.33
2018-04-27T03:57:26.050Z,2.85
2018-04-27T04:00:07.605Z,4.18
2018-04-27T04:02:47.586Z,4.15
2018-04-27T04:05:25.887Z,3.80
2018-04-27T04:07:55.589Z,3.25
2018-04-27T04:10:27.317Z,2.75
2018-04-27T04:12:55.947Z,2.72
2018-04-27T04:15:26.002Z,2.45
2018-04-27T04:17:54.185Z,3.42
2018-04-27T04:20:22.456Z,2.50
2018-04-27T04:22:51.750Z,2.75
2018-04-27T04:25:19.905Z,2.70
2018-04-27T04:27:49.053Z,2.92
2018-04-27T04:30:23.649Z,3.35
2018-04-27T04:32:52.847Z,2.83
2018-04-27T04:35:21.109Z,3.58
2018-04-27T04:37:49.362Z,3.35
2018-04-27T04:40:17.660Z,2.95
2018-04-27T04:42:45.876Z,3.35
2018-04-27T04:45:14.843Z,3.37
2018-04-27T04:47:43.386Z,3.03
2018-04-27T04:50:12.109Z,3.20
2018-04-27T04:52:40.379Z,3.05
2018-04-27T04:55:10.749Z,2.75
2018-04-27T04:57:38.918Z,3.05
2018-04-27T05:00:07.098Z,3.12
2018-04-27T05:02:35.329Z,3.03
2018-04-27T05:05:04.347Z,2.95
2018-04-27T05:07:32.495Z,2.92
2018-04-27T05:10:01.839Z,3.37
2018-04-27T05:12:29.984Z,3.60
2018-04-27T05:14:58.161Z,3.05
2018-04-27T05:17:26.316Z,3.05
2018-04-27T05:19:54.883Z,3.22
2018-04-27T05:22:23.852Z,2.97
2018-04-27T05:24:54.523Z,2.78
2018-04-27T05:27:22.665Z,3.65
2018-04-27T05:29:51.118Z,3.33
2018-04-27T05:32:19.718Z,4.70
2018-04-27T05:34:47.885Z,3.15
2018-04-27T05:37:16.060Z,3.83
2018-04-27T05:39:44.986Z,3.20
2018-04-27T05:42:16.483Z,3.12
2018-04-27T05:44:49.693Z,3.50
2018-04-27T05:47:18.609Z,3.87
2018-04-27T05:49:47.611Z,4.20
2018-04-27T05:52:15.791Z,4.05
2018-04-27T05:54:44.373Z,3.30
2018-04-27T05:57:13.011Z,5.05
2018-04-27T05:59:41.191Z,4.20
2018-04-27T06:02:10.449Z,4.05
2018-04-27T06:04:38.669Z,4.10
2018-04-27T06:07:06.795Z,5.43
2018-04-27T06:09:34.945Z,4.80
2018-04-27T06:12:04.000Z,4.45
2018-04-27T06:14:32.158Z,4.50
2018-04-27T06:17:00.305Z,4.35
2018-04-27T06:19:29.389Z,4.65
2018-04-27T06:22:00.442Z,4.28
2018-04-27T06:24:29.379Z,5.45
2018-04-27T06:26:57.924Z,4.07
2018-04-27T06:29:26.105Z,4.40
2018-04-27T06:31:54.327Z,4.70
2018-04-27T06:34:22.449Z,4.18
2018-04-27T06:36:50.663Z,3.47
2018-04-27T06:39:19.790Z,4.35
2018-04-27T06:41:47.979Z,3.78
2018-04-27T06:44:17.056Z,4.82
2018-04-27T06:46:45.224Z,4.03
2018-04-27T06:49:13.386Z,3.95
2018-04-27T06:51:41.536Z,3.92
2018-04-27T06:54:09.678Z,5.20
2018-04-27T06:56:37.829Z,5.03
2018-04-27T06:59:06.021Z,3.45
2018-04-27T07:01:34.202Z,3.17
2018-04-27T07:04:02.348Z,3.28
2018-04-27T07:06:30.521Z,3.05
2018-04-27T07:08:58.663Z,2.72
2018-04-27T07:11:27.942Z,3.08
2018-04-27T07:13:56.152Z,2.62
2018-04-27T07:16:24.314Z,2.87
2018-04-27T07:18:52.521Z,1.90
2018-04-27T07:21:23.897Z,2.35
2018-04-27T07:23:52.131Z,1.10
2018-04-27T07:26:21.192Z,1.55
2018-04-27T07:28:49.379Z,1.20
2018-04-27T07:31:20.784Z,1.50
2018-04-27T07:33:49.876Z,1.67
2018-04-27T07:36:20.027Z,2.37
2018-04-27T07:38:48.231Z,1.40
2018-04-27T07:41:17.070Z,1.70
2018-04-27T07:43:45.355Z,2.15
2018-04-27T07:46:14.271Z,1.83
2018-04-27T07:48:42.885Z,1.42
2018-04-27T07:51:11.824Z,1.60
2018-04-27T07:53:40.542Z,1.73
2018-04-27T07:56:08.684Z,1.37
2018-04-27T07:58:37.628Z,1.33
2018-04-27T08:01:09.025Z,1.50
2018-04-27T08:03:39.140Z,1.30
2018-04-27T08:06:07.309Z,1.45
2018-04-27T08:08:39.396Z,1.80
2018-04-27T08:11:07.931Z,1.50
2018-04-27T08:13:36.881Z,1.52
2018-04-27T08:16:05.078Z,1.80
2018-04-27T08:18:33.815Z,1.55
2018-04-27T08:21:02.005Z,2.00
2018-04-27T08:23:30.188Z,1.80
2018-04-27T08:25:58.440Z,2.20
2018-04-27T08:28:26.631Z,2.30
2018-04-27T08:30:54.907Z,1.80
2018-04-27T08:33:23.781Z,1.70
2018-04-27T08:35:51.951Z,1.50
2018-04-27T08:38:21.227Z,2.03
2018-04-27T08:40:49.426Z,1.70
2018-04-27T08:43:19.256Z,1.42
2018-04-27T08:45:48.259Z,2.05
2018-04-27T08:48:17.564Z,2.17
2018-04-27T08:50:47.196Z,2.22
2018-04-27T08:53:15.769Z,2.30
2018-04-27T08:55:43.912Z,1.67
2018-04-27T08:58:15.015Z,1.65
2018-04-27T09:00:45.196Z,3.47
2018-04-27T09:03:13.820Z,1.73
2018-04-27T09:05:41.988Z,2.15
2018-04-27T09:08:10.381Z,2.53
2018-04-27T09:10:38.668Z,2.12
2018-04-27T09:13:07.897Z,2.17
2018-04-27T09:15:36.150Z,3.40
2018-04-27T09:18:05.071Z,2.58
2018-04-27T09:20:33.384Z,2.33
2018-04-27T09:23:01.587Z,2.28
2018-04-27T09:25:29.764Z,2.30
2018-04-27T09:27:58.790Z,2.50
2018-04-27T09:30:27.635Z,2.75
2018-04-27T09:32:56.107Z,2.87
2018-04-27T09:35:24.243Z,2.70
2018-04-27T09:37:53.312Z,2.72
2018-04-27T09:40:22.160Z,2.83
2018-04-27T09:42:50.354Z,3.20
2018-04-27T09:45:19.658Z,3.50
2018-04-27T09:47:47.855Z,3.65
2018-04-27T09:50:16.167Z,3.83
2018-04-27T09:52:44.364Z,2.95
2018-04-27T09:55:12.547Z,2.30
2018-04-27T09:57:40.725Z,3.03
2018-04-27T10:00:10.269Z,3.05
2018-04-27T10:02:38.468Z,3.40
2018-04-27T10:05:06.645Z,2.70
2018-04-27T10:07:34.813Z,3.35
2018-04-27T10:10:03.013Z,3.95
2018-04-27T10:12:32.367Z,4.10
2018-04-27T10:15:00.559Z,3.87
2018-04-27T10:17:29.276Z,2.95
2018-04-27T10:19:58.187Z,3.40
2018-04-27T10:22:27.279Z,3.40
2018-04-27T10:24:56.160Z,4.20
2018-04-27T10:27:25.532Z,3.47
2018-04-27T10:29:54.749Z,3.50
2018-04-27T10:32:23.953Z,4.12
2018-04-27T10:34:52.988Z,3.65
2018-04-27T10:37:21.203Z,4.37
2018-04-27T10:39:49.411Z,4.12
2018-04-27T10:42:18.700Z,3.05
2018-04-27T10:44:46.912Z,3.37
2018-04-27T10:47:16.365Z,3.75
2018-04-27T10:49:45.504Z,3.50
2018-04-27T10:52:13.823Z,3.20
2018-04-27T10:54:42.458Z,3.85
2018-04-27T10:57:11.412Z,3.50
2018-04-27T10:59:40.341Z,4.28
2018-04-27T11:02:09.762Z,3.50
2018-04-27T11:04:38.016Z,3.40
2018-04-27T11:07:12.460Z,3.40
2018-04-27T11:09:40.734Z,3.40
2018-04-27T11:12:08.929Z,3.40
2018-04-27T11:14:38.781Z,3.85
2018-04-27T11:17:09.185Z,4.47
2018-04-27T11:19:37.445Z,2.75
2018-04-27T11:22:05.770Z,2.95
2018-04-27T11:24:35.144Z,3.00
2018-04-27T11:27:06.740Z,2.47
2018-04-27T11:29:35.931Z,2.53
2018-04-27T11:32:14.586Z,3.47
2018-04-27T11:34:43.343Z,3.35
2018-04-27T11:37:12.869Z,3.78
2018-04-27T11:39:42.435Z,3.55
2018-04-27T11:42:12.779Z,2.92
2018-04-27T11:44:42.097Z,3.40
2018-04-27T11:47:10.822Z,3.20
2018-04-27T11:49:39.075Z,2.92
2018-04-27T11:52:07.214Z,3.30
2018-04-27T11:54:36.144Z,3.92
2018-04-27T11:57:04.847Z,2.97
2018-04-27T11:59:33.230Z,2.40
2018-04-27T12:02:05.837Z,2.97
2018-04-27T12:04:34.858Z,2.60
2018-04-27T12:07:03.197Z,2.28
2018-04-27T12:09:32.397Z,3.78
2018-04-27T12:12:01.966Z,3.15
2018-04-27T12:14:30.905Z,3.30
2018-04-27T12:16:59.486Z,3.10
2018-04-27T12:19:28.144Z,3.17
2018-04-27T12:21:58.613Z,3.20
2018-04-27T12:24:28.106Z,3.12
2018-04-27T12:26:56.919Z,3.03
2018-04-27T12:29:25.384Z,4.03
2018-04-27T12:31:56.663Z,3.70
2018-04-27T12:34:24.839Z,2.15
2018-04-27T12:36:52.998Z,2.80
2018-04-27T12:39:21.943Z,3.20
2018-04-27T12:41:50.116Z,3.28
2018-04-27T12:44:18.367Z,4.03
2018-04-27T12:46:46.558Z,3.20
2018-04-27T12:49:14.756Z,3.30
2018-04-27T12:51:42.975Z,3.70
2018-04-27T12:54:11.711Z,2.93
2018-04-27T12:56:39.884Z,3.17
2018-04-27T12:59:09.614Z,3.00
2018-04-27T13:01:40.616Z,3.30
2018-04-27T13:04:08.784Z,3.30
2018-04-27T13:06:36.957Z,2.93
2018-04-27T13:09:05.137Z,2.40
2018-04-27T13:11:33.439Z,3.40
2018-04-27T13:14:01.854Z,2.83
2018-04-27T13:16:30.271Z,3.60
2018-04-27T13:18:59.460Z,2.57
2018-04-27T13:21:27.869Z,2.73
2018-04-27T13:23:56.043Z,3.67
2018-04-27T13:26:25.864Z,2.73
2018-04-27T13:28:55.040Z,2.70
2018-04-27T13:31:24.843Z,3.60
2018-04-27T13:33:52.996Z,3.90
2018-04-27T13:36:21.154Z,3.40
2018-04-27T13:38:50.249Z,2.47
2018-04-27T13:41:21.969Z,2.50
2018-04-27T13:43:50.137Z,3.23
2018-04-27T13:46:18.300Z,1.90
2018-04-27T13:48:47.367Z,2.10
2018-04-27T13:51:15.558Z,2.20
2018-04-27T13:53:43.806Z,2.70
2018-04-27T13:56:12.741Z,2.03
2018-04-27T13:58:41.732Z,1.87
2018-04-27T14:01:09.898Z,2.37
2018-04-27T14:03:38.785Z,1.90
2018-04-27T14:06:08.440Z,1.97
2018-04-27T14:08:36.535Z,2.40
2018-04-27T14:11:04.828Z,2.20
2018-04-27T14:13:33.067Z,2.10
2018-04-27T14:16:01.261Z,2.43
2018-04-27T14:18:30.180Z,2.60
2018-04-27T14:21:01.816Z,1.80
2018-04-27T14:23:30.107Z,2.10
2018-04-27T14:25:58.274Z,1.77
2018-04-27T14:28:26.564Z,1.67
2018-04-27T14:30:59.054Z,1.70
2018-04-27T14:33:27.205Z,1.87
2018-04-27T14:35:57.359Z,1.90
2018-04-27T14:38:25.523Z,1.83
2018-04-27T14:40:57.391Z,1.90
2018-04-27T14:43:25.538Z,1.30
2018-04-27T14:45:53.735Z,1.97
2018-04-27T14:48:22.273Z,2.00
2018-04-27T14:50:51.303Z,2.53
2018-04-27T14:53:19.485Z,1.70
2018-04-27T14:55:47.648Z,1.57
2018-04-27T14:58:15.798Z,1.73
2018-04-27T15:00:45.030Z,2.00
2018-04-27T15:03:13.219Z,2.20
2018-04-27T15:05:41.408Z,1.90
2018-04-27T15:08:09.631Z,1.93
2018-04-27T15:10:47.598Z,1.50
2018-04-27T15:13:16.779Z,1.70
2018-04-27T15:15:44.955Z,1.53
2018-04-27T15:18:14.053Z,1.47
2018-04-27T15:20:42.322Z,1.50
2018-04-27T15:23:10.644Z,1.73
2018-04-27T15:25:39.571Z,1.73
2018-04-27T15:28:08.231Z,1.93
2018-04-27T15:30:39.714Z,1.20
2018-04-27T15:33:07.875Z,1.90
2018-04-27T15:35:39.832Z,1.37
2018-04-27T15:38:08.020Z,1.63
2018-04-27T15:40:41.738Z,1.80
2018-04-27T15:43:16.125Z,1.93
2018-04-27T15:45:45.394Z,1.60
2018-04-27T15:48:15.648Z,1.90
2018-04-27T15:50:44.419Z,1.60
2018-04-27T15:53:12.621Z,1.73
2018-04-27T15:55:40.792Z,1.50
2018-04-27T15:58:08.926Z,1.57
2018-04-27T16:00:39.072Z,1.90
2018-04-27T16:03:07.226Z,1.50
2018-04-27T16:05:35.391Z,1.90
2018-04-27T16:08:03.558Z,1.40
2018-04-27T16:10:31.830Z,2.17
2018-04-27T16:13:11.727Z,2.10
2018-04-27T16:15:39.900Z,1.87
2018-04-27T16:18:08.059Z,1.83
2018-04-27T16:20:37.178Z,1.43
2018-04-27T16:23:05.755Z,1.77
2018-04-27T16:25:33.975Z,1.63
2018-04-27T16:28:02.206Z,1.90
2018-04-27T16:30:31.021Z,2.20
2018-04-27T16:32:59.170Z,1.50
2018-04-27T16:35:29.126Z,1.77
2018-04-27T16:37:58.414Z,1.20
2018-04-27T16:40:26.681Z,2.07
2018-04-27T16:42:54.911Z,1.40
2018-04-27T16:45:23.087Z,1.50
2018-04-27T16:47:51.236Z,1.17
2018-04-27T16:50:24.860Z,1.17
2018-04-27T16:52:53.402Z,2.20
2018-04-27T16:55:21.647Z,1.97
2018-04-27T16:57:49.836Z,1.90
2018-04-27T17:00:18.096Z,1.43
2018-04-27T17:02:47.039Z,1.57
2018-04-27T17:05:15.201Z,1.50
2018-04-27T17:07:43.431Z,1.70
2018-04-27T17:10:11.707Z,1.40
2018-04-27T17:12:40.272Z,2.00
2018-04-27T17:15:09.218Z,2.07
2018-04-27T17:17:37.375Z,1.50
2018-04-27T17:20:07.200Z,1.00
2018-04-27T17:22:35.401Z,1.70
2018-04-27T17:25:03.552Z,1.40
2018-04-27T17:27:31.857Z,1.40
2018-04-27T17:30:00.018Z,1.13
2018-04-27T17:32:29.682Z,1.20
2018-04-27T17:35:00.672Z,1.20
2018-04-27T17:37:28.789Z,0.80
2018-04-27T17:39:56.993Z,1.30
2018-04-27T17:42:25.170Z,0.60
2018-04-27T17:44:56.968Z,2.03
2018-04-27T17:47:27.441Z,1.20
2018-04-27T17:49:55.634Z,1.10
2018-04-27T17:52:23.817Z,0.80
2018-04-27T17:54:52.896Z,1.57
2018-04-27T17:57:21.044Z,1.03
2018-04-27T17:59:49.207Z,0.87
2018-04-27T18:02:17.918Z,0.90
2018-04-27T18:04:46.069Z,0.93
2018-04-27T18:07:14.242Z,0.93
2018-04-27T18:09:43.473Z,0.73
2018-04-27T18:12:12.455Z,1.10
2018-04-27T18:14:41.363Z,1.40
2018-04-27T18:17:09.529Z,1.55
2018-04-27T18:19:38.628Z,0.95
2018-04-27T18:22:06.841Z,1.50
2018-04-27T18:24:35.008Z,1.80
2018-04-27T18:27:03.250Z,1.20
2018-04-27T18:29:31.396Z,1.77
2018-04-27T18:32:03.065Z,2.92
2018-04-27T18:34:31.268Z,1.98
2018-04-27T18:36:59.823Z,1.35
2018-04-27T18:39:29.003Z,1.48
2018-04-27T18:41:58.062Z,1.55
2018-04-27T18:44:26.335Z,1.37
2018-04-27T18:46:54.495Z,1.35
2018-04-27T18:49:22.655Z,1.62
2018-04-27T18:51:50.890Z,1.50
2018-04-27T18:54:19.909Z,1.25
2018-04-27T18:56:49.784Z,1.37
2018-04-27T18:59:18.700Z,1.50
2018-04-27T19:01:54.339Z,1.73
2018-04-27T19:04:23.316Z,1.90
2018-04-27T19:06:54.112Z,1.60
2018-04-27T19:09:22.248Z,1.50
2018-04-27T19:11:52.473Z,1.05
2018-04-27T19:14:20.651Z,1.55
2018-04-27T19:16:48.847Z,1.12
2018-04-27T19:19:17.021Z,1.70
2018-04-27T19:21:45.205Z,1.95
2018-04-27T19:24:14.151Z,1.35
2018-04-27T19:26:43.091Z,2.78
2018-04-27T19:29:12.821Z,1.10
2018-04-27T19:31:44.498Z,1.48
2018-04-27T19:34:13.455Z,2.65
2018-04-27T19:36:44.861Z,2.70
2018-04-27T19:39:13.079Z,1.85
2018-04-27T19:41:44.488Z,1.98
2018-04-27T19:44:12.789Z,1.30
2018-04-27T19:46:41.025Z,1.42
2018-04-27T19:49:09.866Z,1.30
2018-04-27T19:51:42.260Z,2.85
2018-04-27T19:54:10.434Z,1.23
2018-04-27T19:56:39.535Z,2.30
2018-04-27T19:59:07.922Z,1.45
2018-04-27T20:01:36.270Z,1.98
2018-04-27T20:04:04.604Z,2.15
2018-04-27T20:06:32.836Z,1.58
2018-04-27T20:09:01.067Z,1.00
2018-04-27T20:11:29.798Z,1.40
2018-04-27T20:13:59.632Z,1.50
2018-04-27T20:16:36.512Z,1.90
2018-04-27T20:19:08.758Z,1.60
2018-04-27T20:21:37.894Z,1.75
2018-04-27T20:24:07.229Z,1.67
2018-04-27T20:26:36.065Z,2.03
2018-04-27T20:29:05.978Z,1.45
2018-04-27T20:31:34.609Z,1.77
2018-04-27T20:34:04.058Z,1.70
2018-04-27T20:36:32.410Z,1.48
2018-04-27T20:39:00.618Z,2.17
2018-04-27T20:41:29.238Z,1.40
2018-04-27T20:44:00.309Z,1.60
2018-04-27T20:46:39.543Z,2.20
2018-04-27T20:49:08.155Z,1.55
2018-04-27T20:51:36.884Z,2.42
2018-04-27T20:54:14.568Z,3.33
2018-04-27T20:56:52.906Z,1.83
2018-04-27T20:59:22.524Z,1.92
2018-04-27T21:01:50.832Z,1.80
2018-04-27T21:04:19.659Z,2.35
2018-04-27T21:06:47.861Z,2.30
2018-04-27T21:09:19.139Z,1.62
2018-04-27T21:11:47.391Z,1.80
2018-04-27T21:14:15.559Z,2.03
2018-04-27T21:16:44.502Z,1.80
2018-04-27T21:19:14.494Z,2.10
2018-04-27T21:21:42.751Z,2.10
2018-04-27T21:24:10.935Z,2.20
2018-04-27T21:26:44.046Z,1.75
2018-04-27T21:29:17.000Z,1.35
2018-04-27T21:31:48.751Z,1.52
2018-04-27T21:34:18.683Z,1.55
2018-04-27T21:36:50.631Z,1.80
2018-04-27T21:39:24.709Z,3.05
2018-04-27T21:41:57.980Z,1.90
2018-04-27T21:44:41.050Z,1.45
2018-04-27T21:47:13.691Z,2.20
2018-04-27T21:49:45.606Z,2.40
2018-04-27T21:52:18.320Z,1.80
2018-04-27T21:54:48.626Z,2.47
2018-04-27T21:57:35.783Z,2.78
2018-04-27T22:00:12.887Z,2.12
2018-04-27T22:02:45.091Z,2.33
2018-04-27T22:05:17.487Z,2.53
2018-04-27T22:07:48.260Z,3.83
2018-04-27T22:10:19.260Z,1.60
2018-04-27T22:12:48.383Z,1.77
2018-04-27T22:15:18.885Z,1.65
2018-04-27T22:17:51.562Z,1.73
2018-04-27T22:20:25.781Z,2.25
2018-04-27T22:22:55.151Z,2.10
2018-04-27T22:28:15.237Z,1.52
2018-04-27T22:30:51.012Z,1.65
2018-04-27T22:33:25.989Z,2.42
2018-04-27T22:35:55.103Z,1.95
2018-04-27T22:38:30.629Z,1.60
2018-04-27T22:40:58.845Z,2.05
2018-04-27T22:43:26.998Z,1.90
2018-04-27T22:46:03.676Z,1.90
2018-04-27T22:48:52.556Z,1.95
2018-04-27T22:51:27.681Z,1.80
2018-04-27T22:53:59.529Z,1.50
2018-04-27T22:56:49.457Z,1.75
2018-04-27T22:59:33.385Z,1.60
2018-04-27T23:02:03.643Z,1.60
2018-04-27T23:04:31.869Z,1.70
2018-04-27T23:07:00.088Z,2.33
2018-04-27T23:09:28.238Z,1.90
2018-04-27T23:12:04.283Z,1.62
2018-04-27T23:14:35.187Z,1.55
2018-04-27T23:17:04.974Z,1.80
2018-04-27T23:19:36.680Z,2.40
2018-04-27T23:22:43.230Z,1.98
2018-04-27T23:28:02.441Z,2.00
2018-04-27T23:30:32.657Z,1.90
2018-04-27T23:33:00.831Z,1.90
2018-04-27T23:35:29.082Z,2.10
2018-04-27T23:37:58.022Z,1.60
2018-04-27T23:40:26.300Z,1.90
2018-04-27T23:42:54.489Z,1.95
2018-04-27T23:45:22.688Z,2.10
2018-04-27T23:47:51.288Z,2.28
2018-04-27T23:50:19.648Z,1.80
2018-04-27T23:52:47.837Z,1.87
2018-04-27T23:55:17.826Z,1.70
2018-04-27T23:57:45.983Z,2.15
